sensor_id;sensor_type;location;lat;lon;timestamp;pressure;altitude;pressure_sealevel;temperature;humidity
54556;BME280;57291;37.520;15.106;2023-02-13T00:00:45;102683.97;;;10.28;72.68
54556;BME280;57291;37.520;15.106;2023-02-13T00:03:13;102681.84;;;10.30;73.69
54556;BME280;57291;37.520;15.106;2023-02-13T00:05:40;102689.75;;;10.32;73.82
54556;BME280;57291;37.520;15.106;2023-02-13T00:08:07;102695.31;;;10.25;73.61
54556;BME280;57291;37.520;15.106;2023-02-13T00:10:34;102690.38;;;10.22;73.63
54556;BME280;57291;37.520;15.106;2023-02-13T00:13:02;102698.53;;;10.22;73.84
54556;BME280;57291;37.520;15.106;2023-02-13T00:15:29;102699.69;;;10.26;73.90
54556;BME280;57291;37.520;15.106;2023-02-13T00:17:57;102705.38;;;10.25;73.79
54556;BME280;57291;37.520;15.106;2023-02-13T00:20:24;102697.47;;;10.23;74.18
54556;BME280;57291;37.520;15.106;2023-02-13T00:22:51;102704.22;;;10.21;74.48
54556;BME280;57291;37.520;15.106;2023-02-13T00:25:18;102706.81;;;10.16;74.38
54556;BME280;57291;37.520;15.106;2023-02-13T00:27:45;102697.25;;;10.13;74.46
54556;BME280;57291;37.520;15.106;2023-02-13T00:30:13;102703.19;;;10.10;74.59
54556;BME280;57291;37.520;15.106;2023-02-13T00:32:40;102702.84;;;10.06;75.02
54556;BME280;57291;37.520;15.106;2023-02-13T00:35:07;102703.47;;;9.97;74.92
54556;BME280;57291;37.520;15.106;2023-02-13T00:37:34;102695.97;;;9.87;75.06
54556;BME280;57291;37.520;15.106;2023-02-13T00:40:02;102694.72;;;9.78;75.31
54556;BME280;57291;37.520;15.106;2023-02-13T00:42:29;102699.66;;;9.81;76.28
54556;BME280;57291;37.520;15.106;2023-02-13T00:44:56;102702.88;;;9.78;76.81
54556;BME280;57291;37.520;15.106;2023-02-13T00:47:23;102697.81;;;9.70;76.75
54556;BME280;57291;37.520;15.106;2023-02-13T00:49:50;102703.03;;;9.59;77.13
54556;BME280;57291;37.520;15.106;2023-02-13T00:52:18;102704.75;;;9.77;76.76
54556;BME280;57291;37.520;15.106;2023-02-13T00:54:45;102717.28;;;10.07;76.92
54556;BME280;57291;37.520;15.106;2023-02-13T00:57:13;102721.06;;;10.35;79.74
54556;BME280;57291;37.520;15.106;2023-02-13T00:59:41;102723.13;;;10.44;80.20
54556;BME280;57291;37.520;15.106;2023-02-13T01:02:08;102722.53;;;10.42;79.86
54556;BME280;57291;37.520;15.106;2023-02-13T01:04:35;102729.44;;;10.33;78.75
54556;BME280;57291;37.520;15.106;2023-02-13T01:07:03;102736.81;;;10.21;78.33
54556;BME280;57291;37.520;15.106;2023-02-13T01:09:30;102734.00;;;10.16;78.44
54556;BME280;57291;37.520;15.106;2023-02-13T01:11:57;102738.28;;;10.12;78.43
54556;BME280;57291;37.520;15.106;2023-02-13T01:14:24;102739.56;;;10.09;77.92
54556;BME280;57291;37.520;15.106;2023-02-13T01:16:51;102738.75;;;10.08;77.41
54556;BME280;57291;37.520;15.106;2023-02-13T01:19:19;102737.13;;;10.07;77.45
54556;BME280;57291;37.520;15.106;2023-02-13T01:21:46;102731.56;;;10.02;77.22
54556;BME280;57291;37.520;15.106;2023-02-13T01:24:13;102723.91;;;9.99;77.33
54556;BME280;57291;37.520;15.106;2023-02-13T01:26:40;102727.38;;;9.95;77.58
54556;BME280;57291;37.520;15.106;2023-02-13T01:29:10;102730.78;;;9.90;78.02
54556;BME280;57291;37.520;15.106;2023-02-13T01:31:38;102733.75;;;9.89;78.62
54556;BME280;57291;37.520;15.106;2023-02-13T01:34:05;102738.59;;;9.86;78.48
54556;BME280;57291;37.520;15.106;2023-02-13T01:36:33;102730.09;;;9.83;78.85
54556;BME280;57291;37.520;15.106;2023-02-13T01:39:00;102721.41;;;9.81;79.10
54556;BME280;57291;37.520;15.106;2023-02-13T01:41:27;102727.88;;;9.80;79.21
54556;BME280;57291;37.520;15.106;2023-02-13T01:43:59;102719.38;;;9.76;79.40
54556;BME280;57291;37.520;15.106;2023-02-13T01:49:09;102714.44;;;9.73;79.58
54556;BME280;57291;37.520;15.106;2023-02-13T01:51:39;102715.75;;;9.71;79.66
54556;BME280;57291;37.520;15.106;2023-02-13T01:54:19;102714.34;;;9.68;79.79
54556;BME280;57291;37.520;15.106;2023-02-13T01:56:52;102708.31;;;9.66;80.05
54556;BME280;57291;37.520;15.106;2023-02-13T01:59:27;102711.28;;;9.65;80.15
54556;BME280;57291;37.520;15.106;2023-02-13T02:01:57;102710.69;;;9.62;80.33
54556;BME280;57291;37.520;15.106;2023-02-13T02:04:28;102710.47;;;9.64;80.60
54556;BME280;57291;37.520;15.106;2023-02-13T02:07:02;102709.88;;;9.62;80.56
54556;BME280;57291;37.520;15.106;2023-02-13T02:09:36;102703.03;;;9.59;80.66
54556;BME280;57291;37.520;15.106;2023-02-13T02:14:59;102710.84;;;9.56;81.07
54556;BME280;57291;37.520;15.106;2023-02-13T02:17:30;102705.16;;;9.57;81.19
54556;BME280;57291;37.520;15.106;2023-02-13T02:26:15;102707.50;;;9.54;81.18
54556;BME280;57291;37.520;15.106;2023-02-13T02:28:59;102722.97;;;9.53;81.69
54556;BME280;57291;37.520;15.106;2023-02-13T02:34:50;102724.06;;;9.52;81.58
54556;BME280;57291;37.520;15.106;2023-02-13T02:37:23;102717.91;;;9.57;81.22
54556;BME280;57291;37.520;15.106;2023-02-13T02:43:03;102719.78;;;9.56;81.32
54556;BME280;57291;37.520;15.106;2023-02-13T02:45:47;102722.50;;;9.56;81.35
54556;BME280;57291;37.520;15.106;2023-02-13T02:48:26;102721.44;;;9.57;80.97
54556;BME280;57291;37.520;15.106;2023-02-13T02:51:23;102730.19;;;9.59;81.44
54556;BME280;57291;37.520;15.106;2023-02-13T02:54:24;102726.16;;;9.62;81.40
54556;BME280;57291;37.520;15.106;2023-02-13T02:57:19;102714.47;;;9.61;81.23
54556;BME280;57291;37.520;15.106;2023-02-13T02:59:55;102713.41;;;9.62;81.26
54556;BME280;57291;37.520;15.106;2023-02-13T03:02:42;102713.88;;;9.59;80.97
54556;BME280;57291;37.520;15.106;2023-02-13T03:05:29;102712.81;;;9.60;81.06
54556;BME280;57291;37.520;15.106;2023-02-13T03:08:16;102716.13;;;9.62;81.09
54556;BME280;57291;37.520;15.106;2023-02-13T03:11:04;102717.19;;;9.61;80.91
54556;BME280;57291;37.520;15.106;2023-02-13T03:13:50;102730.78;;;9.61;80.69
54556;BME280;57291;37.520;15.106;2023-02-13T03:16:21;102719.31;;;9.59;80.78
54556;BME280;57291;37.520;15.106;2023-02-13T03:19:19;102715.91;;;9.64;80.24
54556;BME280;57291;37.520;15.106;2023-02-13T03:25:35;102711.78;;;9.61;76.09
54556;BME280;57291;37.520;15.106;2023-02-13T03:28:23;102712.94;;;9.66;73.34
54556;BME280;57291;37.520;15.106;2023-02-13T03:34:12;102707.50;;;9.66;70.01
54556;BME280;57291;37.520;15.106;2023-02-13T03:37:13;102703.47;;;9.68;69.06
54556;BME280;57291;37.520;15.106;2023-02-13T03:40:15;102709.81;;;9.74;68.04
54556;BME280;57291;37.520;15.106;2023-02-13T03:45:21;102716.44;;;9.78;67.38
54556;BME280;57291;37.520;15.106;2023-02-13T03:48:10;102717.50;;;9.77;67.59
54556;BME280;57291;37.520;15.106;2023-02-13T03:51:00;102722.34;;;9.75;67.41
54556;BME280;57291;37.520;15.106;2023-02-13T03:53:30;102720.47;;;9.75;67.72
54556;BME280;57291;37.520;15.106;2023-02-13T03:56:00;102714.44;;;9.73;67.53
54556;BME280;57291;37.520;15.106;2023-02-13T03:58:50;102715.75;;;9.71;67.59
54556;BME280;57291;37.520;15.106;2023-02-13T04:01:38;102720.69;;;9.74;67.36
54556;BME280;57291;37.520;15.106;2023-02-13T04:06:56;102732.13;;;9.88;66.85
54556;BME280;57291;37.520;15.106;2023-02-13T04:09:27;102734.56;;;9.89;65.24
54556;BME280;57291;37.520;15.106;2023-02-13T04:12:23;102745.22;;;9.91;66.02
54556;BME280;57291;37.520;15.106;2023-02-13T04:15:15;102740.50;;;9.86;65.24
54556;BME280;57291;37.520;15.106;2023-02-13T04:17:47;102748.78;;;9.79;66.44
54556;BME280;57291;37.520;15.106;2023-02-13T04:20:17;102760.13;;;9.76;66.50
54556;BME280;57291;37.520;15.106;2023-02-13T04:22:46;102759.22;;;9.71;66.84
54556;BME280;57291;37.520;15.106;2023-02-13T04:25:16;102756.13;;;9.67;68.18
54556;BME280;57291;37.520;15.106;2023-02-13T04:27:44;102768.06;;;9.66;70.83
54556;BME280;57291;37.520;15.106;2023-02-13T04:30:11;102764.06;;;9.57;69.80
54556;BME280;57291;37.520;15.106;2023-02-13T04:32:39;102783.31;;;9.44;70.10
54556;BME280;57291;37.520;15.106;2023-02-13T04:35:06;102771.16;;;9.23;72.97
54556;BME280;57291;37.520;15.106;2023-02-13T04:37:33;102776.00;;;8.85;73.41
54556;BME280;57291;37.520;15.106;2023-02-13T04:40:00;102771.91;;;8.53;74.74
54556;BME280;57291;37.520;15.106;2023-02-13T04:42:27;102762.38;;;8.32;75.79
54556;BME280;57291;37.520;15.106;2023-02-13T04:44:55;102772.47;;;8.25;77.39
54556;BME280;57291;37.520;15.106;2023-02-13T04:47:22;102769.50;;;8.14;78.29
54556;BME280;57291;37.520;15.106;2023-02-13T04:49:49;102768.50;;;8.09;78.51
54556;BME280;57291;37.520;15.106;2023-02-13T04:52:16;102779.59;;;8.07;78.85
54556;BME280;57291;37.520;15.106;2023-02-13T04:54:43;102774.28;;;8.12;79.20
54556;BME280;57291;37.520;15.106;2023-02-13T04:57:10;102781.50;;;8.18;79.68
54556;BME280;57291;37.520;15.106;2023-02-13T04:59:38;102774.56;;;8.22;79.73
54556;BME280;57291;37.520;15.106;2023-02-13T05:02:05;102778.50;;;8.27;79.91
54556;BME280;57291;37.520;15.106;2023-02-13T05:04:32;102783.69;;;8.28;80.10
54556;BME280;57291;37.520;15.106;2023-02-13T05:06:59;102784.28;;;8.30;80.44
54556;BME280;57291;37.520;15.106;2023-02-13T05:09:26;102786.28;;;8.35;80.54
54556;BME280;57291;37.520;15.106;2023-02-13T05:11:54;102784.19;;;8.37;81.19
54556;BME280;57291;37.520;15.106;2023-02-13T05:14:21;102789.41;;;8.38;81.52
54556;BME280;57291;37.520;15.106;2023-02-13T05:16:48;102787.66;;;8.44;81.97
54556;BME280;57291;37.520;15.106;2023-02-13T05:19:16;102780.97;;;8.47;82.22
54556;BME280;57291;37.520;15.106;2023-02-13T05:21:43;102787.81;;;8.49;82.15
54556;BME280;57291;37.520;15.106;2023-02-13T05:24:28;102788.84;;;8.48;83.19
54556;BME280;57291;37.520;15.106;2023-02-13T05:26:56;102786.84;;;8.43;83.29
54556;BME280;57291;37.520;15.106;2023-02-13T05:29:23;102799.78;;;8.41;83.66
54556;BME280;57291;37.520;15.106;2023-02-13T05:31:52;102802.41;;;8.48;84.47
54556;BME280;57291;37.520;15.106;2023-02-13T05:34:21;102810.31;;;8.50;84.64
54556;BME280;57291;37.520;15.106;2023-02-13T05:36:49;102809.25;;;8.51;84.64
54556;BME280;57291;37.520;15.106;2023-02-13T05:39:17;102824.22;;;8.53;84.35
54556;BME280;57291;37.520;15.106;2023-02-13T05:41:45;102816.09;;;8.53;84.78
54556;BME280;57291;37.520;15.106;2023-02-13T05:44:12;102823.16;;;8.54;84.82
54556;BME280;57291;37.520;15.106;2023-02-13T05:46:40;102820.69;;;8.53;85.04
54556;BME280;57291;37.520;15.106;2023-02-13T05:49:09;102830.84;;;8.57;85.66
54556;BME280;57291;37.520;15.106;2023-02-13T05:51:37;102829.75;;;8.58;85.95
54556;BME280;57291;37.520;15.106;2023-02-13T05:54:04;102835.19;;;8.58;85.86
54556;BME280;57291;37.520;15.106;2023-02-13T05:56:31;102832.84;;;8.62;86.06
54556;BME280;57291;37.520;15.106;2023-02-13T05:58:58;102840.75;;;8.63;86.09
54556;BME280;57291;37.520;15.106;2023-02-13T06:01:25;102836.97;;;8.64;85.90
54556;BME280;57291;37.520;15.106;2023-02-13T06:03:52;102844.66;;;8.67;86.15
54556;BME280;57291;37.520;15.106;2023-02-13T06:06:20;102839.22;;;8.67;86.22
54556;BME280;57291;37.520;15.106;2023-02-13T06:08:48;102834.41;;;8.69;86.42
54556;BME280;57291;37.520;15.106;2023-02-13T06:11:15;102849.50;;;8.77;86.96
54556;BME280;57291;37.520;15.106;2023-02-13T06:13:43;102855.09;;;8.82;87.19
54556;BME280;57291;37.520;15.106;2023-02-13T06:16:10;102850.59;;;8.88;87.16
54556;BME280;57291;37.520;15.106;2023-02-13T06:18:38;102847.44;;;8.91;87.22
54556;BME280;57291;37.520;15.106;2023-02-13T06:21:06;102853.81;;;8.97;87.44
54556;BME280;57291;37.520;15.106;2023-02-13T06:23:33;102851.47;;;9.00;87.34
54556;BME280;57291;37.520;15.106;2023-02-13T06:26:02;102858.22;;;9.09;87.52
54556;BME280;57291;37.520;15.106;2023-02-13T06:28:29;102856.47;;;9.15;87.82
54556;BME280;57291;37.520;15.106;2023-02-13T06:30:57;102861.06;;;9.26;87.92
54556;BME280;57291;37.520;15.106;2023-02-13T06:33:25;102864.28;;;9.35;87.78
54556;BME280;57291;37.520;15.106;2023-02-13T06:35:52;102868.25;;;9.44;88.14
54556;BME280;57291;37.520;15.106;2023-02-13T06:38:19;102870.03;;;9.50;88.13
54556;BME280;57291;37.520;15.106;2023-02-13T06:40:48;102884.31;;;9.57;88.33
54556;BME280;57291;37.520;15.106;2023-02-13T06:43:16;102881.13;;;9.60;87.83
54556;BME280;57291;37.520;15.106;2023-02-13T06:45:43;102886.69;;;9.66;87.86
54556;BME280;57291;37.520;15.106;2023-02-13T06:48:13;102894.13;;;9.70;87.55
54556;BME280;57291;37.520;15.106;2023-02-13T06:50:40;102893.91;;;9.72;87.59
54556;BME280;57291;37.520;15.106;2023-02-13T06:53:07;102897.31;;;9.79;84.07
54556;BME280;57291;37.520;15.106;2023-02-13T06:55:35;102892.72;;;9.91;82.60
54556;BME280;57291;37.520;15.106;2023-02-13T06:58:02;102894.22;;;9.99;81.83
54556;BME280;57291;37.520;15.106;2023-02-13T07:00:29;102898.47;;;10.06;80.02
54556;BME280;57291;37.520;15.106;2023-02-13T07:03:04;102899.75;;;10.16;79.32
54556;BME280;57291;37.520;15.106;2023-02-13T07:05:32;102898.31;;;10.25;79.24
54556;BME280;57291;37.520;15.106;2023-02-13T07:07:59;102905.53;;;10.31;75.88
54556;BME280;57291;37.520;15.106;2023-02-13T07:10:26;102904.13;;;10.40;76.55
54556;BME280;57291;37.520;15.106;2023-02-13T07:12:53;102911.31;;;10.46;76.25
54556;BME280;57291;37.520;15.106;2023-02-13T07:15:33;102923.22;;;10.45;76.73
54556;BME280;57291;37.520;15.106;2023-02-13T07:18:00;102911.66;;;10.38;77.39
54556;BME280;57291;37.520;15.106;2023-02-13T07:20:28;102915.25;;;10.27;79.02
54556;BME280;57291;37.520;15.106;2023-02-13T07:22:59;102912.16;;;10.23;79.45
54556;BME280;57291;37.520;15.106;2023-02-13T07:25:27;102914.19;;;10.28;79.90
54556;BME280;57291;37.520;15.106;2023-02-13T07:27:54;102916.75;;;10.35;80.15
54556;BME280;57291;37.520;15.106;2023-02-13T07:30:21;102915.81;;;10.41;80.33
54556;BME280;57291;37.520;15.106;2023-02-13T07:32:48;102907.66;;;10.41;79.00
54556;BME280;57291;37.520;15.106;2023-02-13T07:35:17;102910.91;;;10.54;79.04
54556;BME280;57291;37.520;15.106;2023-02-13T07:37:44;102912.75;;;10.66;79.14
54556;BME280;57291;37.520;15.106;2023-02-13T07:40:11;102907.16;;;10.72;78.27
54556;BME280;57291;37.520;15.106;2023-02-13T07:42:38;102913.53;;;10.78;77.77
54556;BME280;57291;37.520;15.106;2023-02-13T07:45:06;102913.53;;;10.78;75.72
54556;BME280;57291;37.520;15.106;2023-02-13T07:47:33;102914.22;;;10.85;75.48
54556;BME280;57291;37.520;15.106;2023-02-13T07:50:02;102911.19;;;10.98;75.31
54556;BME280;57291;37.520;15.106;2023-02-13T07:52:31;102919.75;;;11.36;75.48
54556;BME280;57291;37.520;15.106;2023-02-13T07:54:59;102916.75;;;11.54;73.18
54556;BME280;57291;37.520;15.106;2023-02-13T07:57:26;102920.97;;;11.62;71.49
54556;BME280;57291;37.520;15.106;2023-02-13T07:59:53;102917.97;;;11.80;71.36
54556;BME280;57291;37.520;15.106;2023-02-13T08:02:20;102916.81;;;11.93;70.56
54556;BME280;57291;37.520;15.106;2023-02-13T08:04:47;102920.16;;;12.17;70.40
54556;BME280;57291;37.520;15.106;2023-02-13T08:07:15;102921.94;;;12.28;70.37
54556;BME280;57291;37.520;15.106;2023-02-13T08:09:44;102920.63;;;12.31;69.99
54556;BME280;57291;37.520;15.106;2023-02-13T08:12:32;102921.16;;;12.33;68.42
54556;BME280;57291;37.520;15.106;2023-02-13T08:15:00;102928.59;;;12.37;69.42
54556;BME280;57291;37.520;15.106;2023-02-13T08:17:28;102928.41;;;12.44;69.13
54556;BME280;57291;37.520;15.106;2023-02-13T08:19:55;102930.19;;;12.55;69.21
54556;BME280;57291;37.520;15.106;2023-02-13T08:22:23;102935.16;;;12.63;68.96
54556;BME280;57291;37.520;15.106;2023-02-13T08:24:50;102937.41;;;12.44;67.83
54556;BME280;57291;37.520;15.106;2023-02-13T08:27:17;102927.72;;;12.32;68.33
54556;BME280;57291;37.520;15.106;2023-02-13T08:29:44;102939.66;;;12.09;69.51
54556;BME280;57291;37.520;15.106;2023-02-13T08:32:11;102940.56;;;12.14;70.40
54556;BME280;57291;37.520;15.106;2023-02-13T08:34:39;102935.56;;;12.28;70.14
54556;BME280;57291;37.520;15.106;2023-02-13T08:37:06;102940.25;;;12.33;70.10
54556;BME280;57291;37.520;15.106;2023-02-13T08:39:33;102943.75;;;12.50;70.18
54556;BME280;57291;37.520;15.106;2023-02-13T08:42:00;102937.84;;;12.58;68.90
54556;BME280;57291;37.520;15.106;2023-02-13T08:44:27;102945.41;;;12.51;68.69
54556;BME280;57291;37.520;15.106;2023-02-13T08:46:55;102944.50;;;12.46;68.89
54556;BME280;57291;37.520;15.106;2023-02-13T08:49:23;102945.75;;;12.16;69.48
54556;BME280;57291;37.520;15.106;2023-02-13T08:51:50;102941.94;;;12.17;69.76
54556;BME280;57291;37.520;15.106;2023-02-13T08:54:17;102949.91;;;12.40;69.24
54556;BME280;57291;37.520;15.106;2023-02-13T08:56:44;102943.00;;;12.55;67.59
54556;BME280;57291;37.520;15.106;2023-02-13T08:59:11;102945.13;;;12.75;68.18
54556;BME280;57291;37.520;15.106;2023-02-13T09:01:39;102950.59;;;13.02;67.97
54556;BME280;57291;37.520;15.106;2023-02-13T09:04:06;102955.03;;;13.08;67.08
54556;BME280;57291;37.520;15.106;2023-02-13T09:06:33;102950.28;;;12.98;66.31
54556;BME280;57291;37.520;15.106;2023-02-13T09:09:00;102950.81;;;12.95;66.69
54556;BME280;57291;37.520;15.106;2023-02-13T09:11:28;102956.56;;;12.99;66.02
54556;BME280;57291;37.520;15.106;2023-02-13T09:13:55;102949.66;;;13.18;66.02
54556;BME280;57291;37.520;15.106;2023-02-13T09:16:22;102955.53;;;13.27;65.28
54556;BME280;57291;37.520;15.106;2023-02-13T09:18:50;102964.00;;;13.03;64.30
54556;BME280;57291;37.520;15.106;2023-02-13T09:21:19;102955.97;;;12.91;66.13
54556;BME280;57291;37.520;15.106;2023-02-13T09:23:49;102961.28;;;13.03;65.94
54556;BME280;57291;37.520;15.106;2023-02-13T09:26:17;102955.34;;;13.11;63.89
54556;BME280;57291;37.520;15.106;2023-02-13T09:28:46;102952.97;;;13.20;64.61
54556;BME280;57291;37.520;15.106;2023-02-13T09:31:19;102961.84;;;13.32;65.08
54556;BME280;57291;37.520;15.106;2023-02-13T09:33:48;102954.75;;;13.69;64.11
54556;BME280;57291;37.520;15.106;2023-02-13T09:36:20;102967.13;;;14.19;64.13
54556;BME280;57291;37.520;15.106;2023-02-13T09:38:52;102963.44;;;14.45;61.71
54556;BME280;57291;37.520;15.106;2023-02-13T09:43:58;102961.13;;;14.90;58.76
54556;BME280;57291;37.520;15.106;2023-02-13T09:46:32;102962.53;;;15.02;58.35
54556;BME280;57291;37.520;15.106;2023-02-13T09:49:14;102965.56;;;15.11;58.10
54556;BME280;57291;37.520;15.106;2023-02-13T09:51:44;102955.19;;;15.34;58.09
54556;BME280;57291;37.520;15.106;2023-02-13T09:54:15;102953.81;;;15.52;56.99
54556;BME280;57291;37.520;15.106;2023-02-13T10:03:17;102954.63;;;15.11;58.28
54556;BME280;57291;37.520;15.106;2023-02-13T10:16:59;102945.47;;;14.65;55.02
54556;BME280;57291;37.520;15.106;2023-02-13T10:19:30;102937.06;;;14.92;54.29
54556;BME280;57291;37.520;15.106;2023-02-13T10:22:04;102940.91;;;15.16;56.39
54556;BME280;57291;37.520;15.106;2023-02-13T10:24:46;102937.59;;;14.89;56.88
54556;BME280;57291;37.520;15.106;2023-02-13T10:27:26;102936.69;;;14.58;54.71
54556;BME280;57291;37.520;15.106;2023-02-13T10:29:57;102946.81;;;14.57;55.68
54556;BME280;57291;37.520;15.106;2023-02-13T10:35:37;102941.16;;;14.21;53.73
54556;BME280;57291;37.520;15.106;2023-02-13T10:38:23;102947.50;;;14.32;53.70
54556;BME280;57291;37.520;15.106;2023-02-13T10:46:32;102939.78;;;14.24;54.07
54556;BME280;57291;37.520;15.106;2023-02-13T10:54:56;102936.31;;;14.39;52.85
54556;BME280;57291;37.520;15.106;2023-02-13T10:57:45;102929.47;;;14.36;54.14
54556;BME280;57291;37.520;15.106;2023-02-13T11:00:47;102926.44;;;14.38;54.39
54556;BME280;57291;37.520;15.106;2023-02-13T11:03:22;102922.66;;;14.44;55.32
54556;BME280;57291;37.520;15.106;2023-02-13T11:05:50;102923.16;;;14.30;54.87
54556;BME280;57291;37.520;15.106;2023-02-13T11:11:29;102915.47;;;14.22;54.75
54556;BME280;57291;37.520;15.106;2023-02-13T11:17:05;102925.81;;;14.15;54.82
54556;BME280;57291;37.520;15.106;2023-02-13T11:19:39;102916.00;;;14.19;53.68
54556;BME280;57291;37.520;15.106;2023-02-13T11:22:14;102918.72;;;14.24;54.76
54556;BME280;57291;37.520;15.106;2023-02-13T11:24:52;102906.78;;;14.41;53.94
54556;BME280;57291;37.520;15.106;2023-02-13T11:27:32;102908.53;;;14.72;53.81
54556;BME280;57291;37.520;15.106;2023-02-13T11:30:31;102912.69;;;14.85;52.94
54556;BME280;57291;37.520;15.106;2023-02-13T11:33:00;102911.81;;;14.64;52.91
54556;BME280;57291;37.520;15.106;2023-02-13T11:35:33;102913.38;;;14.50;53.04
54556;BME280;57291;37.520;15.106;2023-02-13T11:38:11;102906.50;;;14.42;53.64
54556;BME280;57291;37.520;15.106;2023-02-13T11:40:43;102913.06;;;14.36;53.00
54556;BME280;57291;37.520;15.106;2023-02-13T11:44:02;102903.41;;;14.18;54.24
54556;BME280;57291;37.520;15.106;2023-02-13T11:49:05;102898.28;;;14.37;54.47
54556;BME280;57291;37.520;15.106;2023-02-13T11:51:41;102887.91;;;14.39;55.07
54556;BME280;57291;37.520;15.106;2023-02-13T11:57:16;102887.88;;;14.34;54.60
54556;BME280;57291;37.520;15.106;2023-02-13T11:59:46;102894.97;;;14.25;54.02
54556;BME280;57291;37.520;15.106;2023-02-13T12:04:49;102888.13;;;14.27;53.60
54556;BME280;57291;37.520;15.106;2023-02-13T12:07:30;102890.91;;;14.43;54.59
54556;BME280;57291;37.520;15.106;2023-02-13T12:15:29;102883.75;;;14.26;54.49
54556;BME280;57291;37.520;15.106;2023-02-13T12:18:20;102886.63;;;13.99;54.20
54556;BME280;57291;37.520;15.106;2023-02-13T12:23:50;102878.94;;;13.91;55.51
54556;BME280;57291;37.520;15.106;2023-02-13T12:26:36;102875.66;;;13.94;54.81
54556;BME280;57291;37.520;15.106;2023-02-13T12:29:22;102866.34;;;13.90;55.98
54556;BME280;57291;37.520;15.106;2023-02-13T12:37:41;102880.72;;;13.70;54.50
54556;BME280;57291;37.520;15.106;2023-02-13T12:40:34;102868.22;;;13.79;54.94
54556;BME280;57291;37.520;15.106;2023-02-13T12:48:31;102872.59;;;13.80;52.80
54556;BME280;57291;37.520;15.106;2023-02-13T12:51:07;102864.34;;;13.75;55.18
54556;BME280;57291;37.520;15.106;2023-02-13T12:56:49;102859.88;;;14.06;54.30
54556;BME280;57291;37.520;15.106;2023-02-13T13:05:10;102861.66;;;13.80;54.71
54556;BME280;57291;37.520;15.106;2023-02-13T13:13:38;102854.03;;;13.88;53.74
54556;BME280;57291;37.520;15.106;2023-02-13T13:27:52;102857.59;;;13.88;54.33
54556;BME280;57291;37.520;15.106;2023-02-13T13:30:30;102862.81;;;13.90;55.29
54556;BME280;57291;37.520;15.106;2023-02-13T13:33:19;102874.22;;;13.76;54.69
54556;BME280;57291;37.520;15.106;2023-02-13T13:36:10;102869.50;;;13.67;55.11
54556;BME280;57291;37.520;15.106;2023-02-13T13:41:26;102860.50;;;13.66;54.19
54556;BME280;57291;37.520;15.106;2023-02-13T13:50:01;102871.38;;;13.61;54.41
54556;BME280;57291;37.520;15.106;2023-02-13T13:52:33;102865.56;;;13.47;55.32
54556;BME280;57291;37.520;15.106;2023-02-13T13:55:01;102873.81;;;13.52;55.36
54556;BME280;57291;37.520;15.106;2023-02-13T14:05:56;102877.75;;;13.34;56.58
54556;BME280;57291;37.520;15.106;2023-02-13T14:11:42;102883.13;;;13.24;55.75
54556;BME280;57291;37.520;15.106;2023-02-13T14:16:56;102882.97;;;13.36;56.61
54556;BME280;57291;37.520;15.106;2023-02-13T14:21:53;102877.66;;;13.24;56.14
54556;BME280;57291;37.520;15.106;2023-02-13T14:24:23;102877.47;;;13.04;56.43
54556;BME280;57291;37.520;15.106;2023-02-13T14:26:57;102884.06;;;13.08;57.85
54556;BME280;57291;37.520;15.106;2023-02-13T14:29:32;102880.72;;;13.01;57.64
54556;BME280;57291;37.520;15.106;2023-02-13T14:32:05;102887.59;;;13.08;57.79
54556;BME280;57291;37.520;15.106;2023-02-13T14:34:36;102889.50;;;13.08;57.56
54556;BME280;57291;37.520;15.106;2023-02-13T14:40:12;102884.56;;;13.05;59.36
54556;BME280;57291;37.520;15.106;2023-02-13T14:43:05;102877.69;;;12.97;60.40
54556;BME280;57291;37.520;15.106;2023-02-13T14:45:45;102880.81;;;13.11;59.35
54556;BME280;57291;37.520;15.106;2023-02-13T14:48:13;102878.72;;;12.91;58.63
54556;BME280;57291;37.520;15.106;2023-02-13T14:50:46;102883.88;;;12.87;59.62
54556;BME280;57291;37.520;15.106;2023-02-13T14:53:48;102881.75;;;12.95;58.97
54556;BME280;57291;37.520;15.106;2023-02-13T14:56:18;102878.75;;;12.96;58.56
54556;BME280;57291;37.520;15.106;2023-02-13T14:59:02;102882.41;;;12.80;59.55
54556;BME280;57291;37.520;15.106;2023-02-13T15:01:36;102884.09;;;12.81;60.02
54556;BME280;57291;37.520;15.106;2023-02-13T15:04:10;102890.19;;;12.93;59.00
54556;BME280;57291;37.520;15.106;2023-02-13T15:06:41;102885.31;;;12.95;58.13
54556;BME280;57291;37.520;15.106;2023-02-13T15:09:23;102884.19;;;12.91;59.67
54556;BME280;57291;37.520;15.106;2023-02-13T15:11:53;102882.16;;;12.81;59.94
54556;BME280;57291;37.520;15.106;2023-02-13T15:14:34;102885.72;;;12.82;60.52
54556;BME280;57291;37.520;15.106;2023-02-13T15:17:25;102890.16;;;12.88;60.43
54556;BME280;57291;37.520;15.106;2023-02-13T15:19:55;102887.63;;;12.81;60.55
54556;BME280;57291;37.520;15.106;2023-02-13T15:22:38;102887.56;;;12.76;60.64
54556;BME280;57291;37.520;15.106;2023-02-13T15:25:08;102884.84;;;12.76;61.71
54556;BME280;57291;37.520;15.106;2023-02-13T15:27:41;102887.22;;;12.67;62.30
54556;BME280;57291;37.520;15.106;2023-02-13T15:30:36;102892.06;;;12.60;63.10
54556;BME280;57291;37.520;15.106;2023-02-13T15:33:16;102890.66;;;12.58;63.54
54556;BME280;57291;37.520;15.106;2023-02-13T15:35:44;102890.97;;;12.61;63.56
54556;BME280;57291;37.520;15.106;2023-02-13T15:38:30;102894.22;;;12.58;63.55
54556;BME280;57291;37.520;15.106;2023-02-13T15:41:01;102897.81;;;12.64;64.58
54556;BME280;57291;37.520;15.106;2023-02-13T15:43:34;102891.22;;;12.60;65.45